sensor_id;sensor_type;location;lat;lon;timestamp;pressure;altitude;pressure_sealevel;temperature;humidity
55755;BME280;41674;52.290;-1.474;2023-02-24T00:01:55;101340.75;;;3.52;59.00
55755;BME280;41674;52.290;-1.474;2023-02-24T00:04:23;101336.26;;;3.41;58.86
55755;BME280;41674;52.290;-1.474;2023-02-24T00:06:52;101332.31;;;3.14;59.84
55755;BME280;41674;52.290;-1.474;2023-02-24T00:09:23;101325.53;;;3.31;59.95
55755;BME280;41674;52.290;-1.474;2023-02-24T00:11:54;101317.17;;;2.36;61.07
55755;BME280;41674;52.290;-1.474;2023-02-24T00:14:21;101319.42;;;2.29;62.16
55755;BME280;41674;52.290;-1.474;2023-02-24T00:16:51;101316.88;;;2.90;61.52
55755;BME280;41674;52.290;-1.474;2023-02-24T00:19:22;101319.90;;;3.42;61.16
55755;BME280;41674;52.290;-1.474;2023-02-24T00:21:50;101319.95;;;3.12;60.93
55755;BME280;41674;52.290;-1.474;2023-02-24T00:24:19;101311.46;;;3.07;60.53
55755;BME280;41674;52.290;-1.474;2023-02-24T00:26:51;101305.06;;;3.19;60.78
55755;BME280;41674;52.290;-1.474;2023-02-24T00:29:19;101298.35;;;3.68;60.58
55755;BME280;41674;52.290;-1.474;2023-02-24T00:31:50;101297.02;;;3.48;60.39
55755;BME280;41674;52.290;-1.474;2023-02-24T00:34:18;101290.48;;;3.57;59.98
55755;BME280;41674;52.290;-1.474;2023-02-24T00:36:48;101286.76;;;3.12;60.27
55755;BME280;41674;52.290;-1.474;2023-02-24T00:39:17;101285.72;;;2.80;61.26
55755;BME280;41674;52.290;-1.474;2023-02-24T00:41:47;101280.11;;;2.50;61.61
55755;BME280;41674;52.290;-1.474;2023-02-24T00:44:21;101275.74;;;2.42;63.03
55755;BME280;41674;52.290;-1.474;2023-02-24T00:46:46;101273.00;;;2.95;62.38
55755;BME280;41674;52.290;-1.474;2023-02-24T00:49:18;101277.51;;;2.90;62.28
55755;BME280;41674;52.290;-1.474;2023-02-24T00:51:47;101270.89;;;2.96;61.77
55755;BME280;41674;52.290;-1.474;2023-02-24T00:54:15;101270.11;;;3.42;61.81
55755;BME280;41674;52.290;-1.474;2023-02-24T00:56:47;101265.15;;;3.50;61.66
55755;BME280;41674;52.290;-1.474;2023-02-24T00:59:17;101259.40;;;3.48;62.19
55755;BME280;41674;52.290;-1.474;2023-02-24T01:01:44;101252.23;;;3.06;61.91
55755;BME280;41674;52.290;-1.474;2023-02-24T01:04:14;101254.05;;;2.64;62.62
55755;BME280;41674;52.290;-1.474;2023-02-24T01:06:46;101253.16;;;2.38;63.47
55755;BME280;41674;52.290;-1.474;2023-02-24T01:09:16;101245.78;;;2.52;64.25
55755;BME280;41674;52.290;-1.474;2023-02-24T01:11:44;101245.04;;;2.68;64.13
55755;BME280;41674;52.290;-1.474;2023-02-24T01:14:14;101244.19;;;2.25;64.36
55755;BME280;41674;52.290;-1.474;2023-02-24T01:16:43;101238.36;;;3.05;62.96
55755;BME280;41674;52.290;-1.474;2023-02-24T01:19:11;101233.62;;;3.05;62.50
55755;BME280;41674;52.290;-1.474;2023-02-24T01:21:45;101232.64;;;2.79;62.23
55755;BME280;41674;52.290;-1.474;2023-02-24T01:24:10;101229.16;;;2.88;62.85
55755;BME280;41674;52.290;-1.474;2023-02-24T01:26:39;101219.80;;;2.54;63.23
55755;BME280;41674;52.290;-1.474;2023-02-24T01:29:10;101216.12;;;2.74;63.46
55755;BME280;41674;52.290;-1.474;2023-02-24T01:31:39;101213.70;;;2.37;64.47
55755;BME280;41674;52.290;-1.474;2023-02-24T01:34:09;101210.74;;;2.79;63.99
55755;BME280;41674;52.290;-1.474;2023-02-24T01:36:40;101204.88;;;2.89;63.85
55755;BME280;41674;52.290;-1.474;2023-02-24T01:39:07;101199.73;;;2.70;64.32
55755;BME280;41674;52.290;-1.474;2023-02-24T01:41:37;101199.61;;;3.34;63.28
55755;BME280;41674;52.290;-1.474;2023-02-24T01:45:00;101195.69;;;2.86;63.65
55755;BME280;41674;52.290;-1.474;2023-02-24T01:46:37;101192.44;;;3.58;63.16
55755;BME280;41674;52.290;-1.474;2023-02-24T01:49:08;101185.22;;;3.07;63.59
55755;BME280;41674;52.290;-1.474;2023-02-24T01:51:43;101180.77;;;3.18;64.07
55755;BME280;41674;52.290;-1.474;2023-02-24T01:54:05;101174.95;;;3.13;63.38
55755;BME280;41674;52.290;-1.474;2023-02-24T01:56:33;101170.37;;;3.38;62.90
55755;BME280;41674;52.290;-1.474;2023-02-24T01:59:02;101170.38;;;3.14;63.87
55755;BME280;41674;52.290;-1.474;2023-02-24T02:01:31;101165.83;;;3.03;64.28
55755;BME280;41674;52.290;-1.474;2023-02-24T02:04:06;101163.05;;;2.49;66.96
55755;BME280;41674;52.290;-1.474;2023-02-24T02:06:31;101156.33;;;1.94;67.74
55755;BME280;41674;52.290;-1.474;2023-02-24T02:09:01;101152.46;;;1.65;69.59
55755;BME280;41674;52.290;-1.474;2023-02-24T02:11:30;101150.98;;;1.66;70.36
55755;BME280;41674;52.290;-1.474;2023-02-24T02:14:00;101145.49;;;1.64;71.30
55755;BME280;41674;52.290;-1.474;2023-02-24T02:16:46;101150.71;;;1.18;74.48
55755;BME280;41674;52.290;-1.474;2023-02-24T02:19:13;101148.41;;;1.19;74.94
55755;BME280;41674;52.290;-1.474;2023-02-24T02:24:12;101135.00;;;1.12;74.11
55755;BME280;41674;52.290;-1.474;2023-02-24T02:29:22;101126.26;;;0.87;74.60
55755;BME280;41674;52.290;-1.474;2023-02-24T02:31:48;101119.44;;;1.28;73.89
55755;BME280;41674;52.290;-1.474;2023-02-24T02:34:10;101117.72;;;2.06;70.55
55755;BME280;41674;52.290;-1.474;2023-02-24T02:36:32;101111.29;;;2.01;70.91
55755;BME280;41674;52.290;-1.474;2023-02-24T02:39:03;101105.25;;;2.01;71.65
55755;BME280;41674;52.290;-1.474;2023-02-24T02:41:29;101105.48;;;2.06;72.24
55755;BME280;41674;52.290;-1.474;2023-02-24T02:44:03;101103.25;;;1.76;72.18
55755;BME280;41674;52.290;-1.474;2023-02-24T02:46:31;101103.88;;;2.47;70.00
55755;BME280;41674;52.290;-1.474;2023-02-24T02:48:57;101100.46;;;2.07;71.34
55755;BME280;41674;52.290;-1.474;2023-02-24T02:51:29;101091.26;;;1.87;71.73
55755;BME280;41674;52.290;-1.474;2023-02-24T02:53:59;101091.69;;;2.16;71.92
55755;BME280;41674;52.290;-1.474;2023-02-24T02:56:28;101088.98;;;1.77;72.87
55755;BME280;41674;52.290;-1.474;2023-02-24T02:58:55;101082.51;;;1.34;73.24
55755;BME280;41674;52.290;-1.474;2023-02-24T03:01:28;101078.86;;;1.37;74.36
55755;BME280;41674;52.290;-1.474;2023-02-24T03:03:57;101077.47;;;1.50;74.66
55755;BME280;41674;52.290;-1.474;2023-02-24T03:06:27;101075.64;;;1.51;74.27
55755;BME280;41674;52.290;-1.474;2023-02-24T03:08:58;101069.98;;;0.92;75.42
55755;BME280;41674;52.290;-1.474;2023-02-24T03:11:25;101067.24;;;1.89;72.63
55755;BME280;41674;52.290;-1.474;2023-02-24T03:13:55;101063.34;;;1.48;72.98
55755;BME280;41674;52.290;-1.474;2023-02-24T03:16:24;101063.02;;;1.01;75.40
55755;BME280;41674;52.290;-1.474;2023-02-24T03:18:57;101059.65;;;1.45;74.42
55755;BME280;41674;52.290;-1.474;2023-02-24T03:21:27;101053.31;;;1.92;73.66
55755;BME280;41674;52.290;-1.474;2023-02-24T03:23:52;101050.93;;;1.82;72.85
55755;BME280;41674;52.290;-1.474;2023-02-24T03:26:26;101046.95;;;1.51;72.99
55755;BME280;41674;52.290;-1.474;2023-02-24T03:28:56;101044.32;;;2.01;71.84
55755;BME280;41674;52.290;-1.474;2023-02-24T03:31:25;101034.71;;;2.46;70.77
55755;BME280;41674;52.290;-1.474;2023-02-24T03:33:57;101027.67;;;1.34;72.74
55755;BME280;41674;52.290;-1.474;2023-02-24T03:36:20;101027.47;;;1.98;72.12
55755;BME280;41674;52.290;-1.474;2023-02-24T03:38:50;101025.81;;;2.19;71.95
55755;BME280;41674;52.290;-1.474;2023-02-24T03:41:19;101021.94;;;2.08;71.65
55755;BME280;41674;52.290;-1.474;2023-02-24T03:43:50;101016.76;;;2.37;71.69
55755;BME280;41674;52.290;-1.474;2023-02-24T03:46:18;101009.36;;;1.88;72.00
55755;BME280;41674;52.290;-1.474;2023-02-24T03:48:52;101010.23;;;1.71;72.31
55755;BME280;41674;52.290;-1.474;2023-02-24T03:51:19;101007.79;;;1.59;73.27
55755;BME280;41674;52.290;-1.474;2023-02-24T03:53:56;101005.83;;;1.94;73.35
55755;BME280;41674;52.290;-1.474;2023-02-24T03:56:26;101003.07;;;2.01;73.08
55755;BME280;41674;52.290;-1.474;2023-02-24T03:58:56;100993.88;;;2.17;71.71
55755;BME280;41674;52.290;-1.474;2023-02-24T04:01:23;100994.60;;;2.11;71.72
55755;BME280;41674;52.290;-1.474;2023-02-24T04:03:53;100995.79;;;2.07;72.23
55755;BME280;41674;52.290;-1.474;2023-02-24T04:06:19;100986.98;;;1.96;72.27
55755;BME280;41674;52.290;-1.474;2023-02-24T04:08:50;100979.60;;;2.14;72.66
55755;BME280;41674;52.290;-1.474;2023-02-24T04:11:22;100972.06;;;2.21;72.66
55755;BME280;41674;52.290;-1.474;2023-02-24T04:13:47;100970.32;;;2.14;72.91
55755;BME280;41674;52.290;-1.474;2023-02-24T04:16:18;100972.57;;;2.11;72.51
55755;BME280;41674;52.290;-1.474;2023-02-24T04:18:47;100970.99;;;1.46;74.00
55755;BME280;41674;52.290;-1.474;2023-02-24T04:21:15;100970.84;;;1.40;75.10
55755;BME280;41674;52.290;-1.474;2023-02-24T04:23:44;100966.57;;;2.05;72.25
55755;BME280;41674;52.290;-1.474;2023-02-24T04:26:20;100968.46;;;2.46;72.31
55755;BME280;41674;52.290;-1.474;2023-02-24T04:28:44;100967.37;;;2.63;71.21
55755;BME280;41674;52.290;-1.474;2023-02-24T04:31:14;100961.12;;;2.26;71.04
55755;BME280;41674;52.290;-1.474;2023-02-24T04:33:43;100962.27;;;2.66;70.42
55755;BME280;41674;52.290;-1.474;2023-02-24T04:36:12;100958.16;;;2.85;70.00
55755;BME280;41674;52.290;-1.474;2023-02-24T04:38:42;100958.31;;;2.82;70.85
55755;BME280;41674;52.290;-1.474;2023-02-24T04:41:12;100958.90;;;2.87;70.36
55755;BME280;41674;52.290;-1.474;2023-02-24T04:43:41;100960.46;;;2.35;71.39
55755;BME280;41674;52.290;-1.474;2023-02-24T04:46:11;100953.53;;;2.66;72.19
55755;BME280;41674;52.290;-1.474;2023-02-24T04:48:41;100945.47;;;3.20;70.87
55755;BME280;41674;52.290;-1.474;2023-02-24T04:51:11;100941.95;;;2.05;74.38
55755;BME280;41674;52.290;-1.474;2023-02-24T04:53:40;100941.40;;;2.22;73.97
55755;BME280;41674;52.290;-1.474;2023-02-24T04:56:10;100930.53;;;2.68;74.23
55755;BME280;41674;52.290;-1.474;2023-02-24T04:58:39;100926.62;;;2.34;73.33
55755;BME280;41674;52.290;-1.474;2023-02-24T05:01:10;100917.48;;;2.21;74.54
55755;BME280;41674;52.290;-1.474;2023-02-24T05:03:39;100914.29;;;2.49;73.70
55755;BME280;41674;52.290;-1.474;2023-02-24T05:06:13;100907.46;;;2.54;74.50
55755;BME280;41674;52.290;-1.474;2023-02-24T05:08:38;100897.71;;;2.55;74.03
55755;BME280;41674;52.290;-1.474;2023-02-24T05:11:12;100898.88;;;2.60;73.67
55755;BME280;41674;52.290;-1.474;2023-02-24T05:13:38;100894.48;;;1.86;77.24
55755;BME280;41674;52.290;-1.474;2023-02-24T05:16:08;100886.46;;;1.89;78.16
55755;BME280;41674;52.290;-1.474;2023-02-24T05:18:37;100877.56;;;1.53;79.04
55755;BME280;41674;52.290;-1.474;2023-02-24T05:21:09;100871.46;;;1.59;79.47
55755;BME280;41674;52.290;-1.474;2023-02-24T05:23:38;100869.95;;;2.03;78.72
55755;BME280;41674;52.290;-1.474;2023-02-24T05:26:07;100869.95;;;2.83;75.50
55755;BME280;41674;52.290;-1.474;2023-02-24T05:28:38;100858.74;;;2.27;76.01
55755;BME280;41674;52.290;-1.474;2023-02-24T05:31:07;100861.06;;;2.74;75.65
55755;BME280;41674;52.290;-1.474;2023-02-24T05:33:36;100859.47;;;2.95;74.40
55755;BME280;41674;52.290;-1.474;2023-02-24T05:36:07;100859.50;;;2.93;73.80
55755;BME280;41674;52.290;-1.474;2023-02-24T05:38:35;100859.13;;;2.38;76.24
55755;BME280;41674;52.290;-1.474;2023-02-24T05:41:06;100853.67;;;2.34;78.36
55755;BME280;41674;52.290;-1.474;2023-02-24T05:43:34;100853.10;;;1.93;80.22
55755;BME280;41674;52.290;-1.474;2023-02-24T05:46:04;100858.67;;;2.29;79.80
55755;BME280;41674;52.290;-1.474;2023-02-24T05:48:34;100857.91;;;2.28;80.95
55755;BME280;41674;52.290;-1.474;2023-02-24T05:51:04;100858.92;;;1.86;82.30
55755;BME280;41674;52.290;-1.474;2023-02-24T05:53:34;100857.32;;;2.16;80.60
55755;BME280;41674;52.290;-1.474;2023-02-24T05:58:33;100849.53;;;2.47;78.99
55755;BME280;41674;52.290;-1.474;2023-02-24T06:01:09;100845.19;;;3.06;77.76
55755;BME280;41674;52.290;-1.474;2023-02-24T06:03:32;100833.48;;;2.79;77.92
55755;BME280;41674;52.290;-1.474;2023-02-24T06:06:02;100825.63;;;3.05;78.02
55755;BME280;41674;52.290;-1.474;2023-02-24T06:08:32;100826.37;;;2.84;78.31
55755;BME280;41674;52.290;-1.474;2023-02-24T06:11:01;100819.93;;;2.58;78.59
55755;BME280;41674;52.290;-1.474;2023-02-24T06:13:31;100808.27;;;4.02;74.38
55755;BME280;41674;52.290;-1.474;2023-02-24T06:16:01;100805.26;;;4.71;71.27
55755;BME280;41674;52.290;-1.474;2023-02-24T06:18:30;100807.81;;;3.69;74.08
55755;BME280;41674;52.290;-1.474;2023-02-24T06:21:01;100806.39;;;3.84;73.02
55755;BME280;41674;52.290;-1.474;2023-02-24T06:23:29;100813.50;;;3.66;74.93
55755;BME280;41674;52.290;-1.474;2023-02-24T06:26:01;100816.43;;;2.90;76.57
55755;BME280;41674;52.290;-1.474;2023-02-24T06:28:28;100817.42;;;3.21;76.85
55755;BME280;41674;52.290;-1.474;2023-02-24T06:31:02;100817.48;;;2.93;78.98
55755;BME280;41674;52.290;-1.474;2023-02-24T06:33:27;100813.09;;;3.09;79.37
55755;BME280;41674;52.290;-1.474;2023-02-24T06:35:59;100804.72;;;2.07;84.08
55755;BME280;41674;52.290;-1.474;2023-02-24T06:38:27;100805.07;;;2.26;87.16
55755;BME280;41674;52.290;-1.474;2023-02-24T06:40:57;100803.11;;;1.83;87.29
55755;BME280;41674;52.290;-1.474;2023-02-24T06:43:27;100801.07;;;1.38;89.63
55755;BME280;41674;52.290;-1.474;2023-02-24T06:45:57;100799.72;;;1.79;89.12
55755;BME280;41674;52.290;-1.474;2023-02-24T06:48:26;100795.49;;;2.10;87.85
55755;BME280;41674;52.290;-1.474;2023-02-24T06:50:56;100798.58;;;2.31;87.46
55755;BME280;41674;52.290;-1.474;2023-02-24T06:53:25;100795.83;;;2.42;86.10
55755;BME280;41674;52.290;-1.474;2023-02-24T06:55:55;100793.33;;;2.23;86.12
55755;BME280;41674;52.290;-1.474;2023-02-24T06:58:25;100783.59;;;3.13;83.73
55755;BME280;41674;52.290;-1.474;2023-02-24T07:00:55;100787.76;;;2.66;85.86
55755;BME280;41674;52.290;-1.474;2023-02-24T07:03:28;100789.08;;;2.12;87.11
55755;BME280;41674;52.290;-1.474;2023-02-24T07:05:54;100785.20;;;2.81;85.54
55755;BME280;41674;52.290;-1.474;2023-02-24T07:08:24;100780.48;;;3.78;82.64
55755;BME280;41674;52.290;-1.474;2023-02-24T07:10:55;100782.76;;;2.88;83.21
55755;BME280;41674;52.290;-1.474;2023-02-24T07:13:24;100783.70;;;2.89;83.89
55755;BME280;41674;52.290;-1.474;2023-02-24T07:15:53;100775.15;;;3.90;82.20
55755;BME280;41674;52.290;-1.474;2023-02-24T07:18:22;100768.50;;;3.43;82.21
55755;BME280;41674;52.290;-1.474;2023-02-24T07:20:52;100764.67;;;3.94;81.08
55755;BME280;41674;52.290;-1.474;2023-02-24T07:23:22;100769.97;;;3.60;81.27
55755;BME280;41674;52.290;-1.474;2023-02-24T07:25:52;100773.02;;;3.92;80.52
55755;BME280;41674;52.290;-1.474;2023-02-24T07:28:22;100772.02;;;3.72;81.56
55755;BME280;41674;52.290;-1.474;2023-02-24T07:30:51;100767.44;;;4.34;80.18
55755;BME280;41674;52.290;-1.474;2023-02-24T07:33:22;100766.80;;;4.38;79.92
55755;BME280;41674;52.290;-1.474;2023-02-24T07:35:51;100767.70;;;4.77;78.10
55755;BME280;41674;52.290;-1.474;2023-02-24T07:38:21;100766.91;;;4.56;77.72
55755;BME280;41674;52.290;-1.474;2023-02-24T07:40:50;100769.55;;;4.79;78.46
55755;BME280;41674;52.290;-1.474;2023-02-24T07:43:19;100772.51;;;3.84;80.99
55755;BME280;41674;52.290;-1.474;2023-02-24T07:45:49;100770.46;;;3.96;81.78
55755;BME280;41674;52.290;-1.474;2023-02-24T07:48:18;100772.09;;;4.80;80.14
55755;BME280;41674;52.290;-1.474;2023-02-24T07:50:48;100774.26;;;4.70;80.65
55755;BME280;41674;52.290;-1.474;2023-02-24T07:53:18;100776.52;;;4.83;79.99
55755;BME280;41674;52.290;-1.474;2023-02-24T07:55:47;100771.77;;;4.69;80.19
55755;BME280;41674;52.290;-1.474;2023-02-24T07:58:17;100770.68;;;5.22;77.58
55755;BME280;41674;52.290;-1.474;2023-02-24T08:00:46;100771.39;;;4.64;80.32
55755;BME280;41674;52.290;-1.474;2023-02-24T08:03:16;100771.51;;;4.51;81.05
55755;BME280;41674;52.290;-1.474;2023-02-24T08:05:46;100771.84;;;4.62;82.93
55755;BME280;41674;52.290;-1.474;2023-02-24T08:08:15;100762.93;;;5.20;79.60
55755;BME280;41674;52.290;-1.474;2023-02-24T08:10:45;100762.91;;;5.78;79.37
55755;BME280;41674;52.290;-1.474;2023-02-24T08:13:15;100759.22;;;5.80;81.73
55755;BME280;41674;52.290;-1.474;2023-02-24T08:15:44;100760.33;;;6.13;81.26
55755;BME280;41674;52.290;-1.474;2023-02-24T08:18:14;100754.64;;;5.42;85.45
55755;BME280;41674;52.290;-1.474;2023-02-24T08:20:43;100755.56;;;5.13;84.83
55755;BME280;41674;52.290;-1.474;2023-02-24T08:23:13;100752.97;;;5.36;87.54
55755;BME280;41674;52.290;-1.474;2023-02-24T08:25:43;100750.61;;;5.61;85.57
55755;BME280;41674;52.290;-1.474;2023-02-24T08:28:13;100746.23;;;6.38;85.55
55755;BME280;41674;52.290;-1.474;2023-02-24T08:30:43;100748.64;;;6.49;84.66
55755;BME280;41674;52.290;-1.474;2023-02-24T08:33:16;100745.38;;;5.58;88.67
55755;BME280;41674;52.290;-1.474;2023-02-24T08:35:41;100743.30;;;5.38;90.35
55755;BME280;41674;52.290;-1.474;2023-02-24T08:38:14;100744.31;;;5.06;94.63
55755;BME280;41674;52.290;-1.474;2023-02-24T08:40:45;100750.58;;;4.26;100.00
55755;BME280;41674;52.290;-1.474;2023-02-24T08:43:13;100746.32;;;4.17;100.00
55755;BME280;41674;52.290;-1.474;2023-02-24T08:45:40;100744.88;;;4.09;100.00
55755;BME280;41674;52.290;-1.474;2023-02-24T08:48:10;100742.62;;;4.06;100.00
55755;BME280;41674;52.290;-1.474;2023-02-24T08:50:39;100743.10;;;3.58;100.00
55755;BME280;41674;52.290;-1.474;2023-02-24T08:53:08;100750.67;;;3.74;100.00
55755;BME280;41674;52.290;-1.474;2023-02-24T08:55:38;100744.92;;;3.74;100.00
55755;BME280;41674;52.290;-1.474;2023-02-24T08:58:07;100746.04;;;3.82;100.00
55755;BME280;41674;52.290;-1.474;2023-02-24T09:00:36;100748.27;;;4.01;100.00
55755;BME280;41674;52.290;-1.474;2023-02-24T09:03:05;100740.25;;;4.08;100.00
55755;BME280;41674;52.290;-1.474;2023-02-24T09:05:35;100739.88;;;4.04;100.00
55755;BME280;41674;52.290;-1.474;2023-02-24T09:08:04;100736.23;;;3.72;100.00
55755;BME280;41674;52.290;-1.474;2023-02-24T09:10:34;100735.73;;;3.91;100.00
55755;BME280;41674;52.290;-1.474;2023-02-24T09:13:04;100736.65;;;4.03;100.00
55755;BME280;41674;52.290;-1.474;2023-02-24T09:15:32;100736.98;;;4.32;100.00
55755;BME280;41674;52.290;-1.474;2023-02-24T09:18:02;100735.28;;;4.18;100.00
55755;BME280;41674;52.290;-1.474;2023-02-24T09:20:31;100732.48;;;4.04;100.00
55755;BME280;41674;52.290;-1.474;2023-02-24T09:23:01;100727.23;;;4.62;100.00
55755;BME280;41674;52.290;-1.474;2023-02-24T09:25:31;100725.87;;;4.07;100.00
55755;BME280;41674;52.290;-1.474;2023-02-24T09:28:06;100723.04;;;4.22;100.00
55755;BME280;41674;52.290;-1.474;2023-02-24T09:30:29;100721.48;;;4.55;100.00
55755;BME280;41674;52.290;-1.474;2023-02-24T09:32:58;100719.93;;;4.59;100.00
55755;BME280;41674;52.290;-1.474;2023-02-24T09:35:28;100717.28;;;4.81;100.00
55755;BME280;41674;52.290;-1.474;2023-02-24T09:37:58;100717.12;;;4.38;100.00
55755;BME280;41674;52.290;-1.474;2023-02-24T09:40:27;100712.29;;;4.54;100.00
55755;BME280;41674;52.290;-1.474;2023-02-24T09:42:58;100707.32;;;4.92;100.00
55755;BME280;41674;52.290;-1.474;2023-02-24T09:45:27;100709.44;;;4.92;100.00
55755;BME280;41674;52.290;-1.474;2023-02-24T09:47:56;100707.25;;;5.50;100.00
55755;BME280;41674;52.290;-1.474;2023-02-24T09:50:28;100702.57;;;5.44;100.00
55755;BME280;41674;52.290;-1.474;2023-02-24T09:52:56;100703.79;;;5.20;100.00
55755;BME280;41674;52.290;-1.474;2023-02-24T09:55:31;100706.30;;;5.72;100.00
55755;BME280;41674;52.290;-1.474;2023-02-24T09:57:58;100701.64;;;5.83;100.00
55755;BME280;41674;52.290;-1.474;2023-02-24T10:00:22;100702.21;;;5.39;100.00
55755;BME280;41674;52.290;-1.474;2023-02-24T10:02:59;100700.59;;;5.06;100.00
55755;BME280;41674;52.290;-1.474;2023-02-24T10:05:24;100698.21;;;5.51;100.00
55755;BME280;41674;52.290;-1.474;2023-02-24T10:07:51;100699.81;;;5.44;100.00
55755;BME280;41674;52.290;-1.474;2023-02-24T10:10:22;100698.49;;;5.74;100.00
55755;BME280;41674;52.290;-1.474;2023-02-24T10:12:52;100704.70;;;5.46;100.00
55755;BME280;41674;52.290;-1.474;2023-02-24T10:15:21;100699.71;;;6.44;100.00
55755;BME280;41674;52.290;-1.474;2023-02-24T10:17:51;100702.88;;;6.65;100.00
55755;BME280;41674;52.290;-1.474;2023-02-24T10:20:20;100705.90;;;6.19;100.00
55755;BME280;41674;52.290;-1.474;2023-02-24T10:22:51;100702.19;;;5.97;100.00
55755;BME280;41674;52.290;-1.474;2023-02-24T10:25:25;100700.58;;;6.16;100.00
55755;BME280;41674;52.290;-1.474;2023-02-24T10:27:56;100702.73;;;5.79;100.00
55755;BME280;41674;52.290;-1.474;2023-02-24T10:30:25;100700.40;;;6.16;100.00
55755;BME280;41674;52.290;-1.474;2023-02-24T10:32:51;100698.12;;;5.80;100.00
55755;BME280;41674;52.290;-1.474;2023-02-24T10:35:17;100693.02;;;6.68;100.00
55755;BME280;41674;52.290;-1.474;2023-02-24T10:37:46;100694.00;;;6.29;100.00
55755;BME280;41674;52.290;-1.474;2023-02-24T10:40:15;100692.33;;;6.20;100.00
55755;BME280;41674;52.290;-1.474;2023-02-24T10:42:44;100692.46;;;6.89;100.00
55755;BME280;41674;52.290;-1.474;2023-02-24T10:45:21;100695.91;;;6.49;100.00
55755;BME280;41674;52.290;-1.474;2023-02-24T10:47:48;100690.16;;;6.87;100.00
55755;BME280;41674;52.290;-1.474;2023-02-24T10:50:20;100689.76;;;6.34;100.00
55755;BME280;41674;52.290;-1.474;2023-02-24T10:52:44;100689.12;;;6.74;100.00
55755;BME280;41674;52.290;-1.474;2023-02-24T10:55:21;100690.91;;;6.70;100.00
55755;BME280;41674;52.290;-1.474;2023-02-24T10:57:43;100685.84;;;7.06;100.00
55755;BME280;41674;52.290;-1.474;2023-02-24T11:00:16;100683.37;;;6.92;100.00
55755;BME280;41674;52.290;-1.474;2023-02-24T11:02:47;100681.62;;;6.87;100.00
55755;BME280;41674;52.290;-1.474;2023-02-24T11:05:12;100681.15;;;7.47;98.87
55755;BME280;41674;52.290;-1.474;2023-02-24T11:07:39;100681.63;;;7.19;97.89
55755;BME280;41674;52.290;-1.474;2023-02-24T11:10:13;100677.79;;;6.91;99.37
55755;BME280;41674;52.290;-1.474;2023-02-24T11:12:43;100687.05;;;6.36;100.00
55755;BME280;41674;52.290;-1.474;2023-02-24T11:15:16;100690.14;;;5.99;100.00
55755;BME280;41674;52.290;-1.474;2023-02-24T11:17:45;100687.48;;;6.60;100.00
55755;BME280;41674;52.290;-1.474;2023-02-24T11:20:20;100679.59;;;6.77;100.00
55755;BME280;41674;52.290;-1.474;2023-02-24T11:22:40;100678.58;;;7.11;99.08
55755;BME280;41674;52.290;-1.474;2023-02-24T11:25:14;100673.13;;;7.78;96.18
55755;BME280;41674;52.290;-1.474;2023-02-24T11:27:40;100667.47;;;7.95;93.60
55755;BME280;41674;52.290;-1.474;2023-02-24T11:30:14;100658.97;;;9.07;88.96
55755;BME280;41674;52.290;-1.474;2023-02-24T11:35:12;100658.30;;;9.02;85.36
55755;BME280;41674;52.290;-1.474;2023-02-24T11:37:38;100661.26;;;8.54;87.50
55755;BME280;41674;52.290;-1.474;2023-02-24T11:40:11;100666.11;;;7.87;91.11
55755;BME280;41674;52.290;-1.474;2023-02-24T11:42:38;100664.32;;;7.41;90.94
55755;BME280;41674;52.290;-1.474;2023-02-24T11:45:11;100661.54;;;7.74;90.61
55755;BME280;41674;52.290;-1.474;2023-02-24T11:47:39;100661.56;;;7.72;90.19
55755;BME280;41674;52.290;-1.474;2023-02-24T11:50:18;100658.89;;;7.31;91.42
55755;BME280;41674;52.290;-1.474;2023-02-24T11:52:36;100656.41;;;7.61;90.94
55755;BME280;41674;52.290;-1.474;2023-02-24T11:55:06;100652.53;;;8.25;89.01
55755;BME280;41674;52.290;-1.474;2023-02-24T11:57:38;100649.18;;;7.49;91.77
55755;BME280;41674;52.290;-1.474;2023-02-24T12:00:06;100644.33;;;7.09;92.51
55755;BME280;41674;52.290;-1.474;2023-02-24T12:02:38;100645.64;;;6.89;91.32
55755;BME280;41674;52.290;-1.474;2023-02-24T12:05:08;100641.96;;;7.05;91.78
55755;BME280;41674;52.290;-1.474;2023-02-24T12:07:35;100632.48;;;8.49;87.12
55755;BME280;41674;52.290;-1.474;2023-02-24T12:10:04;100632.31;;;8.19;87.70
55755;BME280;41674;52.290;-1.474;2023-02-24T12:12:36;100627.20;;;8.84;85.22
55755;BME280;41674;52.290;-1.474;2023-02-24T12:15:04;100629.13;;;7.77;85.01
55755;BME280;41674;52.290;-1.474;2023-02-24T12:17:34;100628.41;;;8.57;81.93
55755;BME280;41674;52.290;-1.474;2023-02-24T12:20:02;100621.37;;;9.58;80.52
55755;BME280;41674;52.290;-1.474;2023-02-24T12:22:33;100627.43;;;9.60;80.47
55755;BME280;41674;52.290;-1.474;2023-02-24T12:24:58;100634.83;;;10.44;77.48
55755;BME280;41674;52.290;-1.474;2023-02-24T12:27:39;100639.42;;;9.48;77.73
55755;BME280;41674;52.290;-1.474;2023-02-24T12:30:06;100646.27;;;9.10;81.70
55755;BME280;41674;52.290;-1.474;2023-02-24T12:32:34;100655.42;;;9.52;78.95
55755;BME280;41674;52.290;-1.474;2023-02-24T12:35:04;100663.48;;;9.21;81.36
55755;BME280;41674;52.290;-1.474;2023-02-24T12:37:38;100664.56;;;7.94;90.54
55755;BME280;41674;52.290;-1.474;2023-02-24T12:40:08;100665.53;;;7.95;92.10
55755;BME280;41674;52.290;-1.474;2023-02-24T12:42:29;100667.69;;;7.58;93.58
55755;BME280;41674;52.290;-1.474;2023-02-24T12:45:02;100664.76;;;6.42;96.46
55755;BME280;41674;52.290;-1.474;2023-02-24T12:47:32;100662.37;;;7.59;93.47
55755;BME280;41674;52.290;-1.474;2023-02-24T12:50:04;100663.38;;;6.85;94.62
55755;BME280;41674;52.290;-1.474;2023-02-24T12:52:30;100658.93;;;7.15;93.76
55755;BME280;41674;52.290;-1.474;2023-02-24T12:55:00;100651.47;;;8.27;90.16
55755;BME280;41674;52.290;-1.474;2023-02-24T12:57:29;100652.50;;;7.58;90.80
55755;BME280;41674;52.290;-1.474;2023-02-24T12:59:53;100645.47;;;8.50;89.19
55755;BME280;41674;52.290;-1.474;2023-02-24T13:02:28;100646.33;;;8.71;88.27
55755;BME280;41674;52.290;-1.474;2023-02-24T13:04:57;100647.80;;;8.62;87.61
55755;BME280;41674;52.290;-1.474;2023-02-24T13:07:35;100639.57;;;9.08;85.13
55755;BME280;41674;52.290;-1.474;2023-02-24T13:10:00;100642.16;;;9.12;84.89